Wetterdaten: Woche 13.03.17 - 19.03.17 (KW11)
Datum Zeit Temp. A. Feuchte A. Luftdruck Regen Wind Richtung Sonnenschein ET UV Solar Taupunkt Windchill Windben Empfang
13.03.2017 00:00 0,3 C 81 % 1019,7 hPa 0,0 l/m 6,0 km/h (2 Bft) NO 0,00 h 0,000 mm 0,0 UV-I 0 W/m -2,6 C -0,0 C 9,0 km/h (2 Bft) 95,64 %
13.03.2017 01:00 -0,1 C 83 % 1020,3 hPa 0,0 l/m 5,0 km/h (1 Bft) O-NO 0,00 h 0,000 mm 0,0 UV-I 0 W/m -2,6 C -0,1 C 7,2 km/h (2 Bft) 98,32 %
13.03.2017 02:00 -0,9 C 87 % 1020,5 hPa 0,0 l/m 0,4 km/h (0 Bft) O-NO 0,00 h 0,000 mm 0,0 UV-I 0 W/m -2,8 C -0,9 C 1,0 km/h (0 Bft) 96,90 %
13.03.2017 03:00 -1,0 C 88 % 1020,9 hPa 0,0 l/m 2,1 km/h (1 Bft) O-NO 0,00 h 0,000 mm 0,0 UV-I 0 W/m -2,7 C -1,0 C 3,4 km/h (1 Bft) 96,71 %
13.03.2017 04:00 -1,4 C 90 % 1021,5 hPa 0,0 l/m 2,5 km/h (1 Bft) O 0,00 h 0,000 mm 0,0 UV-I 0 W/m -2,8 C -1,4 C 3,8 km/h (1 Bft) 96,86 %
13.03.2017 05:00 -1,0 C 89 % 1022,0 hPa 0,0 l/m 1,8 km/h (1 Bft) O 0,00 h 0,000 mm 0,0 UV-I 0 W/m -2,6 C -1,0 C 2,8 km/h (1 Bft) 96,95 %
13.03.2017 06:00 -1,6 C 91 % 1022,7 hPa 0,0 l/m 2,1 km/h (1 Bft) O 0,47 h 0,000 mm 0,0 UV-I 22 W/m -2,9 C -1,6 C 3,6 km/h (1 Bft) 97,81 %
13.03.2017 07:00 -1,1 C 92 % 1023,6 hPa 0,0 l/m 1,0 km/h (0 Bft) O 1,00 h 0,000 mm 0,0 UV-I 134 W/m -2,3 C -1,1 C 1,9 km/h (1 Bft) 94,78 %
13.03.2017 08:00 1,0 C 87 % 1024,5 hPa 0,0 l/m 4,4 km/h (1 Bft) NO 1,00 h 0,051 mm 0,6 UV-I 291 W/m -1,0 C 0,6 C 6,5 km/h (2 Bft) 95,81 %
13.03.2017 09:00 2,9 C 81 % 1025,2 hPa 0,0 l/m 8,6 km/h (2 Bft) O-NO 1,00 h 0,101 mm 0,9 UV-I 440 W/m -0,0 C 0,9 C 13,1 km/h (3 Bft) 97,01 %
13.03.2017 10:00 4,8 C 74 % 1025,4 hPa 0,0 l/m 11,8 km/h (2 Bft) NO 1,00 h 0,178 mm 1,5 UV-I 562 W/m 0,5 C 0,7 C 17,2 km/h (3 Bft) 96,31 %
13.03.2017 11:00 5,9 C 70 % 1025,5 hPa 0,0 l/m 11,9 km/h (2 Bft) NO 1,00 h 0,254 mm 1,9 UV-I 630 W/m 0,8 C 2,0 C 17,6 km/h (3 Bft) 95,60 %
13.03.2017 12:00 7,1 C 66 % 1025,4 hPa 0,0 l/m 7,1 km/h (2 Bft) N-NO 1,00 h 0,280 mm 2,1 UV-I 638 W/m 1,1 C 6,1 C 12,2 km/h (3 Bft) 95,18 %
13.03.2017 13:00 7,9 C 63 % 1024,9 hPa 0,0 l/m 4,7 km/h (1 Bft) NO 1,00 h 0,279 mm 1,8 UV-I 598 W/m 1,3 C 7,6 C 8,6 km/h (2 Bft) 94,48 %
13.03.2017 14:00 8,1 C 60 % 1024,8 hPa 0,0 l/m 2,9 km/h (1 Bft) NO 0,67 h 0,279 mm 1,1 UV-I 365 W/m 0,8 C 8,1 C 5,6 km/h (1 Bft) 95,66 %
13.03.2017 15:00 8,6 C 55 % 1024,7 hPa 0,0 l/m 2,0 km/h (1 Bft) N-NW 1,00 h 0,178 mm 0,7 UV-I 357 W/m 0,1 C 8,6 C 4,6 km/h (1 Bft) 94,54 %
13.03.2017 16:00 8,3 C 57 % 1024,8 hPa 0,0 l/m 2,4 km/h (1 Bft) O-NO 0,67 h 0,178 mm 0,5 UV-I 160 W/m 0,4 C 8,3 C 4,1 km/h (1 Bft) 97,01 %
13.03.2017 17:00 7,1 C 66 % 1025,0 hPa 0,0 l/m 0,7 km/h (0 Bft) O-NO 0,23 h 0,076 mm 0,0 UV-I 46 W/m 1,1 C 7,1 C 1,4 km/h (1 Bft) 98,02 %
13.03.2017 18:00 5,0 C 76 % 1025,7 hPa 0,0 l/m 0,9 km/h (0 Bft) O-NO 0,00 h 0,026 mm 0,0 UV-I 6 W/m 1,1 C 5,0 C 2,1 km/h (1 Bft) 95,70 %
13.03.2017 19:00 4,1 C 78 % 1026,1 hPa 0,0 l/m 1,8 km/h (1 Bft) S-SO 0,00 h 0,000 mm 0,0 UV-I 0 W/m 0,7 C 4,1 C 3,1 km/h (1 Bft) 98,15 %
13.03.2017 20:00 4,2 C 80 % 1026,7 hPa 0,0 l/m 2,5 km/h (1 Bft) S-SO 0,00 h 0,000 mm 0,0 UV-I 0 W/m 1,0 C 4,2 C 4,8 km/h (1 Bft) 95,83 %
13.03.2017 21:00 4,2 C 83 % 1027,3 hPa 0,0 l/m 3,6 km/h (1 Bft) S-SO 0,00 h 0,000 mm 0,0 UV-I 0 W/m 1,5 C 4,2 C 6,3 km/h (2 Bft) 96,96 %
13.03.2017 22:00 3,9 C 84 % 1027,7 hPa 0,0 l/m 4,3 km/h (1 Bft) S-SW 0,00 h 0,000 mm 0,0 UV-I 0 W/m 1,5 C 3,9 C 7,0 km/h (2 Bft) 97,68 %
13.03.2017 23:00 3,7 C 85 % 1027,9 hPa 0,0 l/m 4,9 km/h (1 Bft) S-SW 0,00 h 0,000 mm 0,0 UV-I 0 W/m 1,4 C 3,7 C 7,5 km/h (2 Bft) 97,86 %
14.03.2017 00:00 3,5 C 86 % 1028,3 hPa 0,0 l/m 7,7 km/h (2 Bft) S-SW 0,00 h 0,000 mm 0,0 UV-I 0 W/m 1,3 C 2,3 C 11,0 km/h (2 Bft) 97,79 %
14.03.2017 01:00 3,3 C 85 % 1029,0 hPa 0,0 l/m 7,6 km/h (2 Bft) SW 0,00 h 0,000 mm 0,0 UV-I 0 W/m 1,1 C 2,1 C 11,0 km/h (2 Bft) 96,25 %
14.03.2017 02:00 3,5 C 85 % 1028,8 hPa 0,0 l/m 6,7 km/h (2 Bft) S-SW 0,00 h 0,000 mm 0,0 UV-I 0 W/m 1,2 C 3,0 C 10,3 km/h (2 Bft) 97,05 %
14.03.2017 03:00 4,0 C 84 % 1028,7 hPa 0,0 l/m 8,8 km/h (2 Bft) SW 0,00 h 0,000 mm 0,0 UV-I 0 W/m 1,5 C 2,0 C 13,5 km/h (3 Bft) 96,49 %
14.03.2017 04:00 3,7 C 84 % 1029,0 hPa 0,0 l/m 4,0 km/h (1 Bft) W 0,00 h 0,025 mm 0,0 UV-I 0 W/m 1,3 C 3,5 C 6,2 km/h (2 Bft) 98,21 %
14.03.2017 05:00 3,5 C 85 % 1029,4 hPa 0,0 l/m 5,0 km/h (1 Bft) SW 0,00 h 0,000 mm 0,0 UV-I 0 W/m 1,2 C 3,5 C 7,4 km/h (2 Bft) 96,93 %
14.03.2017 06:00 3,1 C 86 % 1029,8 hPa 0,0 l/m 5,9 km/h (2 Bft) SW 0,03 h 0,000 mm 0,0 UV-I 16 W/m 1,0 C 2,7 C 8,6 km/h (2 Bft) 95,31 %
14.03.2017 07:00 4,3 C 81 % 1030,1 hPa 0,0 l/m 11,6 km/h (2 Bft) W-SW 0,73 h 0,026 mm 0,0 UV-I 140 W/m 1,3 C 0,3 C 16,8 km/h (3 Bft) 96,01 %
14.03.2017 08:00 6,5 C 73 % 1030,5 hPa 0,0 l/m 13,6 km/h (3 Bft) W-SW 0,83 h 0,076 mm 0,6 UV-I 266 W/m 2,1 C 1,7 C 19,7 km/h (3 Bft) 97,20 %
14.03.2017 09:00 7,9 C 65 % 1031,2 hPa 0,0 l/m 11,4 km/h (2 Bft) W-SW 0,50 h 0,152 mm 0,9 UV-I 294 W/m 1,9 C 4,7 C 17,6 km/h (3 Bft) 97,26 %
14.03.2017 10:00 8,6 C 61 % 1031,4 hPa 0,0 l/m 12,1 km/h (2 Bft) W 0,27 h 0,178 mm 0,9 UV-I 258 W/m 1,4 C 5,0 C 18,9 km/h (3 Bft) 96,99 %
14.03.2017 11:00 8,7 C 57 % 1031,4 hPa 0,0 l/m 13,1 km/h (3 Bft) W 0,00 h 0,153 mm 0,6 UV-I 142 W/m 0,7 C 4,5 C 19,9 km/h (4 Bft) 95,62 %
14.03.2017 12:00 9,6 C 55 % 1030,7 hPa 0,0 l/m 13,3 km/h (3 Bft) W 0,00 h 0,127 mm 1,2 UV-I 259 W/m 1,1 C 5,5 C 21,1 km/h (4 Bft) 97,35 %
14.03.2017 13:00 10,4 C 53 % 1030,1 hPa 0,0 l/m 14,1 km/h (3 Bft) W 0,20 h 0,177 mm 1,3 UV-I 310 W/m 1,3 C 6,1 C 23,1 km/h (4 Bft) 96,39 %
14.03.2017 14:00 10,5 C 54 % 1030,2 hPa 0,0 l/m 15,4 km/h (3 Bft) W 0,57 h 0,204 mm 1,0 UV-I 306 W/m 1,7 C 5,7 C 23,5 km/h (4 Bft) 97,19 %
14.03.2017 15:00 10,4 C 57 % 1030,0 hPa 0,0 l/m 13,0 km/h (3 Bft) W 0,27 h 0,228 mm 0,7 UV-I 170 W/m 2,3 C 6,6 C 20,1 km/h (4 Bft) 94,64 %
14.03.2017 16:00 9,8 C 60 % 1029,9 hPa 0,0 l/m 9,7 km/h (2 Bft) W 0,00 h 0,127 mm 0,0 UV-I 59 W/m 2,4 C 7,6 C 15,4 km/h (3 Bft) 96,47 %
14.03.2017 17:00 9,2 C 63 % 1029,6 hPa 0,0 l/m 10,0 km/h (2 Bft) W-SW 0,00 h 0,076 mm 0,0 UV-I 19 W/m 2,6 C 6,8 C 14,6 km/h (3 Bft) 96,22 %
14.03.2017 18:00 8,7 C 66 % 1029,8 hPa 0,0 l/m 7,2 km/h (2 Bft) W 0,00 h 0,051 mm 0,0 UV-I 5 W/m 2,6 C 8,0 C 11,3 km/h (2 Bft) 97,94 %
14.03.2017 19:00 8,3 C 68 % 1029,8 hPa 0,0 l/m 5,6 km/h (1 Bft) W-SW 0,00 h 0,026 mm 0,0 UV-I 0 W/m 2,7 C 8,1 C 8,5 km/h (2 Bft) 95,07 %
14.03.2017 20:00 7,6 C 73 % 1030,2 hPa 0,0 l/m 6,2 km/h (2 Bft) W-SW 0,00 h 0,025 mm 0,0 UV-I 0 W/m 3,1 C 7,3 C 8,7 km/h (2 Bft) 95,99 %
14.03.2017 21:00 7,6 C 74 % 1030,0 hPa 0,0 l/m 9,9 km/h (2 Bft) SW 0,00 h 0,025 mm 0,0 UV-I 0 W/m 3,4 C 5,1 C 14,7 km/h (3 Bft) 96,74 %
14.03.2017 22:00 7,7 C 72 % 1030,1 hPa 0,0 l/m 10,2 km/h (2 Bft) SW 0,00 h 0,026 mm 0,0 UV-I 0 W/m 3,0 C 5,0 C 14,9 km/h (3 Bft) 98,32 %
14.03.2017 23:00 6,9 C 75 % 1030,1 hPa 0,0 l/m 10,4 km/h (2 Bft) SW 0,00 h 0,025 mm 0,0 UV-I 0 W/m 2,8 C 4,0 C 15,3 km/h (3 Bft) 96,56 %
15.03.2017 00:00 6,2 C 78 % 1029,9 hPa 0,0 l/m 10,5 km/h (2 Bft) SW 0,00 h 0,000 mm 0,0 UV-I 0 W/m 2,7 C 3,2 C 15,0 km/h (3 Bft) 96,42 %
15.03.2017 01:00 6,0 C 79 % 1029,6 hPa 0,0 l/m 8,2 km/h (2 Bft) SW 0,00 h 0,025 mm 0,0 UV-I 0 W/m 2,6 C 4,5 C 12,8 km/h (3 Bft) 97,40 %
15.03.2017 02:00 6,2 C 78 % 1029,3 hPa 0,0 l/m 8,6 km/h (2 Bft) W-SW 0,00 h 0,026 mm 0,0 UV-I 0 W/m 2,7 C 4,4 C 13,1 km/h (3 Bft) 98,05 %
15.03.2017 03:00 5,8 C 79 % 1028,9 hPa 0,0 l/m 7,3 km/h (2 Bft) W-SW 0,00 h 0,025 mm 0,0 UV-I 0 W/m 2,5 C 5,0 C 11,1 km/h (2 Bft) 96,88 %
15.03.2017 04:00 5,0 C 81 % 1028,9 hPa 0,0 l/m 7,9 km/h (2 Bft) SW 0,00 h 0,026 mm 0,0 UV-I 0 W/m 2,1 C 3,7 C 12,1 km/h (2 Bft) 94,94 %
15.03.2017 05:00 5,2 C 81 % 1029,0 hPa 0,0 l/m 9,9 km/h (2 Bft) SW 0,00 h 0,025 mm 0,0 UV-I 0 W/m 2,1 C 2,4 C 14,7 km/h (3 Bft) 98,92 %
15.03.2017 06:00 5,5 C 80 % 1029,4 hPa 0,0 l/m 13,1 km/h (3 Bft) W-SW 0,17 h 0,025 mm 0,0 UV-I 21 W/m 2,3 C 0,7 C 19,5 km/h (3 Bft) 96,76 %
15.03.2017 07:00 6,2 C 79 % 1029,6 hPa 0,0 l/m 12,8 km/h (3 Bft) SW 0,47 h 0,026 mm 0,0 UV-I 114 W/m 2,9 C 1,7 C 18,9 km/h (3 Bft) 97,39 %
15.03.2017 08:00 7,7 C 76 % 1029,8 hPa 0,0 l/m 11,6 km/h (2 Bft) W-SW 0,60 h 0,076 mm 0,6 UV-I 231 W/m 3,8 C 4,2 C 17,2 km/h (3 Bft) 94,51 %
15.03.2017 09:00 8,9 C 74 % 1030,1 hPa 0,0 l/m 5,9 km/h (2 Bft) W 0,13 h 0,127 mm 0,7 UV-I 202 W/m 4,4 C 8,1 C 9,8 km/h (2 Bft) 96,23 %
15.03.2017 10:00 9,8 C 72 % 1030,3 hPa 0,0 l/m 7,2 km/h (2 Bft) W 0,10 h 0,102 mm 1,0 UV-I 245 W/m 5,0 C 8,6 C 12,1 km/h (2 Bft) 97,01 %
15.03.2017 11:00 11,1 C 67 % 1029,9 hPa 0,0 l/m 11,9 km/h (2 Bft) W 0,63 h 0,127 mm 1,7 UV-I 409 W/m 5,3 C 8,0 C 20,0 km/h (4 Bft) 97,56 %
15.03.2017 12:00 11,7 C 66 % 1029,5 hPa 0,0 l/m 14,1 km/h (3 Bft) W-SW 0,43 h 0,228 mm 1,5 UV-I 325 W/m 5,5 C 7,7 C 21,9 km/h (4 Bft) 97,42 %
15.03.2017 13:00 11,8 C 66 % 1029,1 hPa 0,0 l/m 10,6 km/h (2 Bft) W 0,00 h 0,203 mm 1,2 UV-I 247 W/m 5,7 C 9,3 C 18,1 km/h (3 Bft) 95,47 %
15.03.2017 14:00 12,5 C 65 % 1028,0 hPa 0,0 l/m 13,3 km/h (3 Bft) W-SW 0,67 h 0,153 mm 1,2 UV-I 353 W/m 6,1 C 8,9 C 21,6 km/h (4 Bft) 97,47 %
15.03.2017 15:00 12,9 C 61 % 1027,5 hPa 0,0 l/m 12,9 km/h (3 Bft) W-SW 0,67 h 0,228 mm 0,7 UV-I 274 W/m 5,7 C 9,6 C 21,3 km/h (4 Bft) 97,43 %
15.03.2017 16:00 12,2 C 65 % 1027,5 hPa 0,0 l/m 10,3 km/h (2 Bft) W 0,67 h 0,204 mm 0,4 UV-I 157 W/m 5,9 C 10,0 C 19,3 km/h (3 Bft) 97,41 %
15.03.2017 17:00 11,1 C 72 % 1027,6 hPa 0,0 l/m 7,9 km/h (2 Bft) W 0,20 h 0,127 mm 0,0 UV-I 51 W/m 6,2 C 9,9 C 14,3 km/h (3 Bft) 95,65 %
15.03.2017 18:00 9,2 C 80 % 1028,1 hPa 0,0 l/m 1,9 km/h (1 Bft) W 0,00 h 0,050 mm 0,0 UV-I 6 W/m 5,9 C 9,2 C 4,7 km/h (1 Bft) 95,06 %
15.03.2017 19:00 8,1 C 84 % 1028,2 hPa 0,0 l/m 4,9 km/h (1 Bft) SW 0,00 h 0,000 mm 0,0 UV-I 0 W/m 5,5 C 8,0 C 7,8 km/h (2 Bft) 97,04 %
15.03.2017 20:00 8,0 C 83 % 1028,6 hPa 0,0 l/m 6,6 km/h (2 Bft) W-SW 0,00 h 0,000 mm 0,0 UV-I 0 W/m 5,4 C 7,5 C 10,1 km/h (2 Bft) 96,20 %
15.03.2017 21:00 7,8 C 84 % 1028,8 hPa 0,0 l/m 7,6 km/h (2 Bft) W-SW 0,00 h 0,026 mm 0,0 UV-I 0 W/m 5,2 C 6,7 C 11,7 km/h (2 Bft) 97,58 %
15.03.2017 22:00 6,7 C 86 % 1028,9 hPa 0,0 l/m 6,0 km/h (2 Bft) SW 0,00 h 0,025 mm 0,0 UV-I 0 W/m 4,5 C 6,5 C 9,1 km/h (2 Bft) 94,70 %
15.03.2017 23:00 6,0 C 89 % 1028,6 hPa 0,0 l/m 7,2 km/h (2 Bft) S-SW 0,00 h 0,000 mm 0,0 UV-I 0 W/m 4,3 C 5,3 C 10,8 km/h (2 Bft) 98,01 %
16.03.2017 00:00 5,5 C 90 % 1028,0 hPa 0,0 l/m 7,5 km/h (2 Bft) SW 0,00 h 0,000 mm 0,0 UV-I 0 W/m 4,0 C 4,5 C 11,1 km/h (2 Bft) 96,94 %
16.03.2017 01:00 5,0 C 91 % 1027,6 hPa 0,0 l/m 7,3 km/h (2 Bft) S-SW 0,00 h 0,000 mm 0,0 UV-I 0 W/m 3,7 C 4,2 C 10,5 km/h (2 Bft) 98,37 %
16.03.2017 02:00 4,0 C 93 % 1027,4 hPa 0,0 l/m 2,8 km/h (1 Bft) SW 0,00 h 0,000 mm 0,0 UV-I 0 W/m 3,0 C 4,0 C 4,8 km/h (1 Bft) 95,42 %
16.03.2017 03:00 3,1 C 94 % 1027,0 hPa 0,0 l/m 2,7 km/h (1 Bft) SW 0,00 h 0,000 mm 0,0 UV-I 0 W/m 2,2 C 3,1 C 4,8 km/h (1 Bft) 96,76 %
16.03.2017 04:00 3,1 C 95 % 1026,7 hPa 0,0 l/m 2,0 km/h (1 Bft) S-SW 0,00 h 0,000 mm 0,0 UV-I 0 W/m 2,3 C 3,1 C 2,9 km/h (1 Bft) 97,80 %
16.03.2017 05:00 2,6 C 95 % 1026,7 hPa 0,0 l/m 1,6 km/h (1 Bft) S-SW 0,00 h 0,000 mm 0,0 UV-I 0 W/m 1,9 C 2,6 C 3,3 km/h (1 Bft) 96,08 %
16.03.2017 06:00 2,1 C 96 % 1026,4 hPa 0,0 l/m 3,5 km/h (1 Bft) S-SW 0,13 h 0,000 mm 0,0 UV-I 20 W/m 1,6 C 2,1 C 5,6 km/h (1 Bft) 97,12 %
16.03.2017 07:00 3,5 C 96 % 1026,1 hPa 0,0 l/m 4,4 km/h (1 Bft) SW 0,40 h 0,000 mm 0,0 UV-I 120 W/m 2,8 C 3,5 C 7,1 km/h (2 Bft) 93,21 %
16.03.2017 08:00 5,9 C 90 % 1026,4 hPa 0,0 l/m 3,9 km/h (1 Bft) W 1,00 h 0,051 mm 0,6 UV-I 301 W/m 4,4 C 5,8 C 7,0 km/h (2 Bft) 97,62 %
16.03.2017 09:00 7,9 C 85 % 1026,4 hPa 0,0 l/m 1,5 km/h (1 Bft) NW 1,00 h 0,127 mm 1,1 UV-I 393 W/m 5,4 C 7,9 C 4,1 km/h (1 Bft) 96,83 %
16.03.2017 10:00 9,5 C 80 % 1026,0 hPa 0,0 l/m 4,7 km/h (1 Bft) W-NW 0,80 h 0,178 mm 1,4 UV-I 360 W/m 6,3 C 9,4 C 9,1 km/h (2 Bft) 97,78 %
16.03.2017 11:00 11,2 C 75 % 1025,3 hPa 0,0 l/m 6,8 km/h (2 Bft) W-SW 0,87 h 0,177 mm 2,0 UV-I 447 W/m 6,9 C 10,3 C 12,2 km/h (2 Bft) 98,09 %
16.03.2017 12:00 12,6 C 60 % 1024,5 hPa 0,0 l/m 11,1 km/h (2 Bft) W 0,97 h 0,254 mm 2,5 UV-I 627 W/m 4,9 C 10,1 C 18,0 km/h (3 Bft) 96,76 %
16.03.2017 13:00 13,8 C 50 % 1023,8 hPa 0,0 l/m 9,1 km/h (2 Bft) W 1,00 h 0,356 mm 2,2 UV-I 608 W/m 3,6 C 12,2 C 16,3 km/h (3 Bft) 95,39 %
16.03.2017 14:00 14,2 C 47 % 1023,2 hPa 0,0 l/m 9,4 km/h (2 Bft) W 1,00 h 0,356 mm 1,6 UV-I 521 W/m 3,2 C 12,6 C 15,9 km/h (3 Bft) 95,50 %
16.03.2017 15:00 14,5 C 45 % 1022,5 hPa 0,0 l/m 7,6 km/h (2 Bft) W 1,00 h 0,330 mm 0,9 UV-I 382 W/m 2,7 C 13,6 C 13,0 km/h (3 Bft) 98,46 %
16.03.2017 16:00 14,3 C 44 % 1021,6 hPa 0,0 l/m 6,8 km/h (2 Bft) W 1,00 h 0,254 mm 0,5 UV-I 219 W/m 2,0 C 13,7 C 12,0 km/h (2 Bft) 98,08 %
16.03.2017 17:00 13,2 C 46 % 1021,2 hPa 0,0 l/m 4,4 km/h (1 Bft) W 1,00 h 0,152 mm 0,0 UV-I 75 W/m 1,8 C 13,1 C 8,2 km/h (2 Bft) 97,88 %
16.03.2017 18:00 10,4 C 57 % 1020,9 hPa 0,0 l/m 1,2 km/h (1 Bft) W-NW 0,03 h 0,076 mm 0,0 UV-I 10 W/m 2,2 C 10,4 C 2,9 km/h (1 Bft) 95,66 %
16.03.2017 19:00 7,2 C 73 % 1021,0 hPa 0,0 l/m 1,9 km/h (1 Bft) S-SW 0,00 h 0,026 mm 0,0 UV-I 0 W/m 2,7 C 7,2 C 3,3 km/h (1 Bft) 95,96 %
16.03.2017 20:00 7,0 C 71 % 1021,0 hPa 0,0 l/m 2,6 km/h (1 Bft) S 0,00 h 0,000 mm 0,0 UV-I 0 W/m 2,2 C 7,0 C 4,7 km/h (1 Bft) 96,68 %
16.03.2017 21:00 6,6 C 70 % 1020,9 hPa 0,0 l/m 3,1 km/h (1 Bft) S 0,00 h 0,000 mm 0,0 UV-I 0 W/m 1,6 C 6,6 C 5,4 km/h (1 Bft) 97,22 %
16.03.2017 22:00 6,0 C 70 % 1020,7 hPa 0,0 l/m 3,3 km/h (1 Bft) S 0,00 h 0,025 mm 0,0 UV-I 0 W/m 0,9 C 6,0 C 5,3 km/h (1 Bft) 98,08 %
16.03.2017 23:00 4,8 C 74 % 1020,4 hPa 0,0 l/m 4,4 km/h (1 Bft) S 0,00 h 0,026 mm 0,0 UV-I 0 W/m 0,5 C 4,8 C 6,0 km/h (2 Bft) 97,55 %
17.03.2017 00:00 4,2 C 73 % 1020,1 hPa 0,0 l/m 2,7 km/h (1 Bft) S-SW 0,00 h 0,000 mm 0,0 UV-I 0 W/m -0,3 C 4,2 C 4,4 km/h (1 Bft) 96,99 %
17.03.2017 01:00 4,2 C 69 % 1019,4 hPa 0,0 l/m 2,6 km/h (1 Bft) S 0,00 h 0,000 mm 0,0 UV-I 0 W/m -1,0 C 4,2 C 5,2 km/h (1 Bft) 94,83 %
17.03.2017 02:00 2,2 C 79 % 1018,8 hPa 0,0 l/m 3,2 km/h (1 Bft) NO 0,00 h 0,000 mm 0,0 UV-I 0 W/m -1,0 C 2,2 C 4,6 km/h (1 Bft) 98,10 %
17.03.2017 03:00 1,1 C 87 % 1018,3 hPa 0,0 l/m 2,5 km/h (1 Bft) N-NO 0,00 h 0,000 mm 0,0 UV-I 0 W/m -0,7 C 1,1 C 3,8 km/h (1 Bft) 96,92 %
17.03.2017 04:00 0,6 C 88 % 1017,8 hPa 0,0 l/m 2,0 km/h (1 Bft) O 0,00 h 0,000 mm 0,0 UV-I 0 W/m -1,2 C 0,6 C 3,3 km/h (1 Bft) 96,99 %
17.03.2017 05:00 0,1 C 89 % 1017,5 hPa 0,0 l/m 1,7 km/h (1 Bft) O-SO 0,00 h 0,000 mm 0,0 UV-I 5 W/m -1,6 C 0,1 C 3,0 km/h (1 Bft) 94,98 %
17.03.2017 06:00 0,1 C 88 % 1017,6 hPa 0,0 l/m 2,2 km/h (1 Bft) O-SO 0,60 h 0,000 mm 0,0 UV-I 36 W/m -1,6 C 0,1 C 3,6 km/h (1 Bft) 97,23 %
17.03.2017 07:00 2,1 C 83 % 1017,3 hPa 0,0 l/m 1,4 km/h (1 Bft) O-SO 1,00 h 0,025 mm 0,0 UV-I 166 W/m -0,6 C 2,1 C 2,9 km/h (1 Bft) 97,57 %
17.03.2017 08:00 5,4 C 72 % 1017,1 hPa 0,0 l/m 0,6 km/h (0 Bft) S-SW 1,00 h 0,077 mm 0,7 UV-I 329 W/m 0,8 C 5,4 C 2,0 km/h (1 Bft) 97,23 %
17.03.2017 09:00 8,1 C 66 % 1016,6 hPa 0,0 l/m 2,1 km/h (1 Bft) NO 1,00 h 0,127 mm 1,3 UV-I 473 W/m 2,2 C 8,1 C 3,9 km/h (1 Bft) 95,29 %
17.03.2017 10:00 10,7 C 57 % 1016,0 hPa 0,0 l/m 1,7 km/h (1 Bft) O-NO 1,00 h 0,228 mm 2,0 UV-I 566 W/m 2,7 C 10,7 C 3,7 km/h (1 Bft) 98,64 %
17.03.2017 11:00 13,1 C 54 % 1015,2 hPa 0,0 l/m 1,8 km/h (1 Bft) S 1,00 h 0,280 mm 2,7 UV-I 648 W/m 4,0 C 13,1 C 4,3 km/h (1 Bft) 96,15 %
17.03.2017 12:00 15,4 C 53 % 1014,3 hPa 0,0 l/m 3,6 km/h (1 Bft) NW 1,00 h 0,330 mm 2,7 UV-I 648 W/m 5,9 C 15,3 C 8,2 km/h (2 Bft) 98,00 %
17.03.2017 13:00 17,6 C 49 % 1013,2 hPa 0,0 l/m 5,7 km/h (1 Bft) W 1,00 h 0,355 mm 2,3 UV-I 586 W/m 6,8 C 17,1 C 10,5 km/h (2 Bft) 95,42 %
17.03.2017 14:00 17,6 C 50 % 1011,9 hPa 0,0 l/m 6,3 km/h (2 Bft) W 0,40 h 0,356 mm 1,1 UV-I 302 W/m 7,1 C 17,1 C 12,2 km/h (2 Bft) 96,28 %
17.03.2017 15:00 18,3 C 48 % 1010,4 hPa 0,0 l/m 8,0 km/h (2 Bft) W-SW 0,50 h 0,203 mm 0,8 UV-I 222 W/m 7,1 C 17,5 C 13,8 km/h (3 Bft) 97,21 %
17.03.2017 16:00 17,1 C 58 % 1009,6 hPa 0,2 l/m 5,1 km/h (1 Bft) W 0,63 h 0,178 mm 0,0 UV-I 172 W/m 8,6 C 16,8 C 10,1 km/h (2 Bft) 97,79 %
17.03.2017 17:00 16,3 C 60 % 1009,0 hPa 0,0 l/m 3,0 km/h (1 Bft) W 0,10 h 0,127 mm 0,0 UV-I 44 W/m 8,4 C 16,3 C 5,6 km/h (1 Bft) 95,49 %
17.03.2017 18:00 14,5 C 64 % 1009,5 hPa 0,0 l/m 8,2 km/h (2 Bft) W-NW 0,00 h 0,051 mm 0,0 UV-I 5 W/m 7,9 C 13,2 C 18,1 km/h (3 Bft) 95,14 %
17.03.2017 19:00 11,2 C 87 % 1011,1 hPa 1,6 l/m 10,9 km/h (2 Bft) W-SW 0,00 h 0,051 mm 0,0 UV-I 0 W/m 9,0 C 8,5 C 18,6 km/h (3 Bft) 94,72 %
17.03.2017 20:00 10,8 C 88 % 1011,4 hPa 0,0 l/m 12,7 km/h (3 Bft) SW 0,00 h 0,025 mm 0,0 UV-I 0 W/m 9,0 C 7,2 C 19,1 km/h (3 Bft) 97,15 %
17.03.2017 21:00 10,8 C 87 % 1011,3 hPa 0,0 l/m 10,0 km/h (2 Bft) W-SW 0,00 h 0,025 mm 0,0 UV-I 0 W/m 8,8 C 8,6 C 14,7 km/h (3 Bft) 97,01 %
17.03.2017 22:00 10,3 C 91 % 1011,5 hPa 1,0 l/m 7,9 km/h (2 Bft) W 0,00 h 0,026 mm 0,0 UV-I 0 W/m 8,9 C 9,2 C 12,9 km/h (3 Bft) 97,11 %
17.03.2017 23:00 9,1 C 92 % 1011,7 hPa 1,2 l/m 10,2 km/h (2 Bft) W 0,00 h 0,000 mm 0,0 UV-I 0 W/m 7,8 C 6,5 C 16,5 km/h (3 Bft) 95,70 %
18.03.2017 00:00 8,7 C 93 % 1011,2 hPa 0,0 l/m 11,1 km/h (2 Bft) SW 0,00 h 0,000 mm 0,0 UV-I 0 W/m 7,5 C 5,5 C 16,5 km/h (3 Bft) 98,36 %
18.03.2017 01:00 8,9 C 91 % 1010,8 hPa 0,0 l/m 10,1 km/h (2 Bft) W-SW 0,00 h 0,000 mm 0,0 UV-I 0 W/m 7,5 C 6,4 C 15,2 km/h (3 Bft) 96,97 %
18.03.2017 02:00 8,9 C 93 % 1009,6 hPa 0,0 l/m 8,6 km/h (2 Bft) SW 0,00 h 0,000 mm 0,0 UV-I 0 W/m 7,8 C 7,3 C 13,5 km/h (3 Bft) 97,95 %
18.03.2017 03:00 9,1 C 91 % 1008,2 hPa 0,0 l/m 10,1 km/h (2 Bft) W-SW 0,00 h 0,000 mm 0,0 UV-I 0 W/m 7,7 C 6,7 C 15,3 km/h (3 Bft) 95,21 %
18.03.2017 04:00 9,0 C 85 % 1007,3 hPa 0,0 l/m 11,5 km/h (2 Bft) W-SW 0,00 h 0,000 mm 0,0 UV-I 0 W/m 6,7 C 5,7 C 16,6 km/h (3 Bft) 98,11 %
18.03.2017 05:00 8,7 C 87 % 1007,3 hPa 0,0 l/m 9,8 km/h (2 Bft) W-SW 0,00 h 0,025 mm 0,0 UV-I 0 W/m 6,6 C 6,5 C 14,9 km/h (3 Bft) 97,75 %
18.03.2017 06:00 8,7 C 82 % 1007,5 hPa 0,2 l/m 15,8 km/h (3 Bft) W-SW 0,00 h 0,026 mm 0,0 UV-I 14 W/m 5,7 C 3,2 C 26,1 km/h (4 Bft) 96,95 %
18.03.2017 07:00 8,3 C 85 % 1006,8 hPa 0,4 l/m 17,1 km/h (3 Bft) W-SW 0,00 h 0,025 mm 0,0 UV-I 34 W/m 5,9 C 2,3 C 25,7 km/h (4 Bft) 95,33 %
18.03.2017 08:00 8,5 C 84 % 1006,6 hPa 1,6 l/m 22,8 km/h (4 Bft) W-SW 0,00 h 0,051 mm 0,0 UV-I 45 W/m 6,0 C 0,5 C 35,7 km/h (5 Bft) 96,22 %
18.03.2017 09:00 7,9 C 90 % 1006,4 hPa 3,2 l/m 20,7 km/h (4 Bft) W-SW 0,00 h 0,051 mm 0,0 UV-I 36 W/m 6,3 C 0,4 C 30,9 km/h (5 Bft) 97,20 %
18.03.2017 10:00 8,0 C 92 % 1006,7 hPa 3,8 l/m 19,3 km/h (3 Bft) W 0,00 h 0,025 mm 0,3 UV-I 69 W/m 6,8 C 1,1 C 29,5 km/h (5 Bft) 95,97 %
18.03.2017 11:00 8,0 C 91 % 1007,1 hPa 2,4 l/m 22,4 km/h (4 Bft) W-SW 0,00 h 0,051 mm 0,1 UV-I 67 W/m 6,7 C -0,0 C 35,6 km/h (5 Bft) 95,53 %
18.03.2017 12:00 7,8 C 91 % 1007,3 hPa 1,4 l/m 22,3 km/h (4 Bft) W-SW 0,00 h 0,051 mm 0,3 UV-I 81 W/m 6,4 C -0,3 C 34,0 km/h (5 Bft) 95,06 %
18.03.2017 13:00 7,9 C 92 % 1007,2 hPa 1,4 l/m 19,1 km/h (3 Bft) W-SW 0,00 h 0,051 mm 0,0 UV-I 77 W/m 6,6 C 0,9 C 28,2 km/h (4 Bft) 95,96 %
18.03.2017 14:00 8,1 C 91 % 1007,2 hPa 0,6 l/m 20,0 km/h (4 Bft) W-SW 0,00 h 0,050 mm 0,0 UV-I 54 W/m 6,7 C 0,9 C 30,0 km/h (5 Bft) 94,53 %
18.03.2017 15:00 8,3 C 89 % 1007,2 hPa 0,0 l/m 23,1 km/h (4 Bft) W-SW 0,00 h 0,051 mm 0,0 UV-I 35 W/m 6,6 C 0,2 C 34,8 km/h (5 Bft) 94,20 %
18.03.2017 16:00 8,4 C 88 % 1007,3 hPa 0,2 l/m 23,5 km/h (4 Bft) SW 0,00 h 0,051 mm 0,0 UV-I 21 W/m 6,5 C 0,2 C 33,3 km/h (5 Bft) 94,31 %
18.03.2017 17:00 8,1 C 91 % 1007,9 hPa 0,2 l/m 20,6 km/h (4 Bft) W-SW 0,00 h 0,025 mm 0,0 UV-I 13 W/m 6,7 C 0,6 C 29,2 km/h (5 Bft) 96,83 %
18.03.2017 18:00 8,3 C 90 % 1008,0 hPa 0,0 l/m 23,4 km/h (4 Bft) SW 0,00 h 0,026 mm 0,0 UV-I 4 W/m 6,7 C 0,0 C 32,8 km/h (5 Bft) 95,82 %
18.03.2017 19:00 8,3 C 91 % 1007,6 hPa 1,0 l/m 24,4 km/h (4 Bft) W-SW 0,00 h 0,025 mm 0,0 UV-I 0 W/m 6,8 C -0,3 C 33,8 km/h (5 Bft) 95,49 %
18.03.2017 20:00 8,3 C 91 % 1007,1 hPa 0,4 l/m 21,6 km/h (4 Bft) W-SW 0,00 h 0,026 mm 0,0 UV-I 0 W/m 7,0 C 0,7 C 30,3 km/h (5 Bft) 95,06 %
18.03.2017 21:00 8,7 C 90 % 1006,9 hPa 0,6 l/m 21,8 km/h (4 Bft) W-SW 0,00 h 0,025 mm 0,0 UV-I 0 W/m 7,1 C 1,0 C 30,0 km/h (5 Bft) 96,90 %
18.03.2017 22:00 8,7 C 91 % 1007,2 hPa 1,4 l/m 20,5 km/h (4 Bft) W-SW 0,00 h 0,025 mm 0,0 UV-I 0 W/m 7,3 C 1,5 C 28,3 km/h (4 Bft) 95,72 %
18.03.2017 23:00 8,8 C 91 % 1007,5 hPa 0,4 l/m 20,2 km/h (4 Bft) W-SW 0,00 h 0,026 mm 0,0 UV-I 0 W/m 7,4 C 1,7 C 27,9 km/h (4 Bft) 95,47 %
19.03.2017 00:00 8,6 C 91 % 1008,1 hPa 1,6 l/m 16,2 km/h (3 Bft) W-SW 0,00 h 0,000 mm 0,0 UV-I 0 W/m 7,2 C 3,7 C 24,6 km/h (4 Bft) 95,45 %
19.03.2017 01:00 6,6 C 95 % 1009,2 hPa 0,8 l/m 7,6 km/h (2 Bft) W 0,00 h 0,025 mm 0,0 UV-I 0 W/m 5,8 C 5,4 C 12,6 km/h (3 Bft) 97,33 %
19.03.2017 02:00 6,4 C 96 % 1009,4 hPa 0,6 l/m 8,8 km/h (2 Bft) W-SW 0,00 h 0,000 mm 0,0 UV-I 0 W/m 5,8 C 4,5 C 12,4 km/h (3 Bft) 97,53 %
19.03.2017 03:00 6,4 C 96 % 1009,7 hPa 0,4 l/m 8,9 km/h (2 Bft) W-SW 0,00 h 0,000 mm 0,0 UV-I 0 W/m 5,8 C 4,5 C 12,8 km/h (3 Bft) 96,36 %
19.03.2017 04:00 6,3 C 97 % 1010,3 hPa 0,2 l/m 9,1 km/h (2 Bft) W 0,00 h 0,000 mm 0,0 UV-I 0 W/m 5,9 C 4,3 C 13,7 km/h (3 Bft) 96,60 %
19.03.2017 05:00 6,1 C 96 % 1010,9 hPa 0,4 l/m 5,3 km/h (1 Bft) W 0,00 h 0,000 mm 0,0 UV-I 0 W/m 5,5 C 5,7 C 9,1 km/h (2 Bft) 97,16 %
19.03.2017 06:00 5,8 C 97 % 1011,4 hPa 0,4 l/m 3,0 km/h (1 Bft) W 0,00 h 0,000 mm 0,0 UV-I 9 W/m 5,4 C 5,8 C 4,9 km/h (1 Bft) 96,71 %
19.03.2017 07:00 5,9 C 97 % 1011,8 hPa 1,0 l/m 4,0 km/h (1 Bft) W 0,00 h 0,000 mm 0,0 UV-I 19 W/m 5,5 C 5,9 C 6,2 km/h (2 Bft) 94,88 %
19.03.2017 08:00 6,1 C 97 % 1011,9 hPa 2,0 l/m 1,0 km/h (0 Bft) W 0,00 h 0,000 mm 0,0 UV-I 35 W/m 5,7 C 6,1 C 2,2 km/h (1 Bft) 96,26 %
19.03.2017 09:00 6,4 C 97 % 1012,1 hPa 1,8 l/m 0,8 km/h (0 Bft) SW 0,00 h 0,026 mm 0,0 UV-I 72 W/m 5,9 C 6,4 C 2,1 km/h (1 Bft) 96,21 %
19.03.2017 10:00 6,9 C 97 % 1011,8 hPa 1,6 l/m 0,7 km/h (0 Bft) S 0,00 h 0,025 mm 0,3 UV-I 74 W/m 6,4 C 6,9 C 2,6 km/h (1 Bft) 97,95 %
19.03.2017 11:00 7,2 C 97 % 1011,5 hPa 0,2 l/m 1,0 km/h (0 Bft) S 0,00 h 0,026 mm 0,5 UV-I 102 W/m 6,7 C 7,2 C 2,7 km/h (1 Bft) 95,78 %
19.03.2017 12:00 8,9 C 96 % 1010,9 hPa 0,0 l/m 2,6 km/h (1 Bft) S 0,00 h 0,050 mm 0,8 UV-I 155 W/m 8,3 C 8,9 C 5,1 km/h (1 Bft) 96,15 %
19.03.2017 13:00 11,3 C 90 % 1010,1 hPa 0,2 l/m 15,3 km/h (3 Bft) W-SW 0,00 h 0,077 mm 0,8 UV-I 139 W/m 9,8 C 6,9 C 22,8 km/h (4 Bft) 96,70 %
19.03.2017 14:00 11,6 C 89 % 1010,1 hPa 0,0 l/m 12,4 km/h (3 Bft) W-SW 0,00 h 0,076 mm 0,2 UV-I 71 W/m 9,7 C 8,1 C 18,6 km/h (3 Bft) 98,14 %
19.03.2017 15:00 12,6 C 84 % 1009,7 hPa 0,0 l/m 16,2 km/h (3 Bft) W-SW 0,00 h 0,051 mm 0,5 UV-I 138 W/m 10,0 C 7,9 C 24,0 km/h (4 Bft) 96,26 %
19.03.2017 16:00 12,7 C 83 % 1009,3 hPa 0,0 l/m 15,5 km/h (3 Bft) W-SW 0,00 h 0,101 mm 0,0 UV-I 47 W/m 9,8 C 8,3 C 22,1 km/h (4 Bft) 95,20 %
19.03.2017 17:00 12,6 C 84 % 1009,4 hPa 0,0 l/m 11,4 km/h (2 Bft) W-SW 0,00 h 0,051 mm 0,0 UV-I 31 W/m 10,0 C 9,8 C 17,1 km/h (3 Bft) 96,44 %
19.03.2017 18:00 12,2 C 86 % 1009,5 hPa 0,0 l/m 10,7 km/h (2 Bft) W-SW 0,00 h 0,025 mm 0,0 UV-I 7 W/m 9,8 C 9,8 C 15,8 km/h (3 Bft) 97,55 %
19.03.2017 19:00 11,6 C 88 % 1009,5 hPa 0,0 l/m 10,3 km/h (2 Bft) SW 0,00 h 0,026 mm 0,0 UV-I 0 W/m 9,7 C 9,2 C 15,4 km/h (3 Bft) 96,17 %
19.03.2017 20:00 11,6 C 87 % 1009,5 hPa 0,0 l/m 13,3 km/h (3 Bft) SW 0,00 h 0,025 mm 0,0 UV-I 0 W/m 9,5 C 7,8 C 19,4 km/h (3 Bft) 97,22 %
19.03.2017 21:00 11,8 C 86 % 1009,3 hPa 0,0 l/m 17,0 km/h (3 Bft) SW 0,00 h 0,026 mm 0,0 UV-I 0 W/m 9,5 C 6,6 C 25,3 km/h (4 Bft) 95,60 %
19.03.2017 22:00 12,3 C 83 % 1009,3 hPa 0,0 l/m 19,9 km/h (4 Bft) W-SW 0,00 h 0,025 mm 0,0 UV-I 0 W/m 9,6 C 6,3 C 28,4 km/h (4 Bft) 98,65 %
19.03.2017 23:00 12,1 C 83 % 1009,3 hPa 0,0 l/m 18,8 km/h (3 Bft) SW 0,00 h 0,051 mm 0,0 UV-I 0 W/m 9,2 C 6,4 C 27,5 km/h (4 Bft) 96,86 %
Min-Datum _ 13.03.17 16.03.17 18.03.17 - 13.03.17 - - - - - 13.03.17 18.03.17 13.03.17 18.03.17
_ Min-Zeit 06:34 15:56 09:28 - 02:16 - - - - - 06:34 16:23 02:16 15:54
Minimum _ -2,0 C 42 % 1006,2 hPa - 0,0 km/h (0 Bft) - - - - - -3,3 C -2,3 C 0,0 km/h (0 Bft) 75,00 %
Max-Datum _ 17.03.17 19.03.17 14.03.17 18.03.17 18.03.17 - 13.03.17 16.03.17 17.03.17 17.03.17 19.03.17 17.03.17 18.03.17 13.03.17
_ Max-Zeit 13:48 08:42 10:18 10:00 16:23 - 15:13 13:02 11:30 13:42 15:26 13:48 08:22 01:02
Maximum _ 18,9 C 98 % 1031,5 hPa 3,8 l/m 33,9 km/h
SW (5 Bft)
- 0,05 h 0,356 mm 2,8 UV-I 817 W/m 10,1 C 18,9 C 49,9 km/h
W-SW (6 Bft)
100,00 %
Durchschnitt _ 7,6 C 79 % 1020,0 hPa #34,4 l/m 8,6 km/h (2 Bft) W-SW #37:36 h #11,685 mm 1,1 UV-I 205 W/m 3,9 C 5,5 C 13,4 km/h (3 Bft) 96,59 %